createdAt,value
2022-08-05T00:01:35.919Z,26.70
2022-08-05T00:04:08.442Z,26.70
2022-08-05T00:06:36.728Z,26.70
2022-08-05T00:09:12.774Z,26.80
2022-08-05T00:11:49.458Z,26.80
2022-08-05T00:14:27.871Z,26.80
2022-08-05T00:16:57.390Z,26.80
2022-08-05T00:19:33.831Z,26.80
2022-08-05T00:22:13.966Z,26.80
2022-08-05T00:24:46.734Z,26.70
2022-08-05T00:27:28.432Z,26.70
2022-08-05T00:30:11.290Z,26.70
2022-08-05T00:32:40.512Z,26.70
2022-08-05T00:35:09.737Z,26.70
2022-08-05T00:37:52.793Z,26.70
2022-08-05T00:40:26.886Z,26.70
2022-08-05T00:42:56.250Z,26.70
2022-08-05T00:45:37.987Z,26.80
2022-08-05T00:48:07.805Z,26.70
2022-08-05T00:50:36.077Z,26.70
2022-08-05T00:53:09.580Z,26.70
2022-08-05T00:55:52.773Z,26.70
2022-08-05T00:58:20.921Z,26.70
2022-08-05T01:00:57.167Z,26.60
2022-08-05T01:03:31.014Z,26.60
2022-08-05T01:06:03.791Z,26.50
2022-08-05T01:08:42.875Z,26.50
2022-08-05T01:11:22.133Z,26.50
2022-08-05T01:14:00.846Z,26.40
2022-08-05T01:16:34.786Z,26.40
2022-08-05T01:19:14.306Z,26.20
2022-08-05T01:22:24.052Z,26.20
2022-08-05T01:25:04.555Z,26.10
2022-08-05T01:28:19.343Z,26.10
2022-08-05T01:30:55.162Z,26.00
2022-08-05T01:33:35.417Z,25.90
2022-08-05T01:36:12.843Z,25.90
2022-08-05T01:38:48.570Z,25.80
2022-08-05T01:41:22.349Z,25.70
2022-08-05T01:43:55.682Z,25.70
2022-08-05T01:46:41.442Z,25.60
2022-08-05T01:49:23.987Z,25.50
2022-08-05T01:51:58.477Z,25.50
2022-08-05T01:54:31.174Z,25.40
2022-08-05T01:58:12.460Z,25.30
2022-08-05T01:59:53.771Z,25.20
2022-08-05T02:02:28.381Z,25.10
2022-08-05T02:05:01.842Z,25.00
2022-08-05T02:07:31.973Z,25.00
2022-08-05T02:10:02.046Z,24.90
2022-08-05T02:12:39.681Z,24.90
2022-08-05T02:15:14.756Z,24.90
2022-08-05T02:18:30.688Z,24.90
2022-08-05T02:20:48.522Z,24.90
2022-08-05T02:23:22.705Z,24.80
2022-08-05T02:25:53.434Z,24.80
2022-08-05T02:28:29.316Z,24.80
2022-08-05T02:31:04.359Z,24.80
2022-08-05T02:33:38.761Z,24.80
2022-08-05T02:36:13.635Z,24.80
2022-08-05T02:38:53.564Z,24.90
2022-08-05T02:41:28.845Z,24.90
2022-08-05T02:44:12.074Z,25.00
2022-08-05T02:46:58.331Z,25.00
2022-08-05T02:49:35.716Z,25.10
2022-08-05T02:52:08.043Z,25.10
2022-08-05T02:54:41.159Z,25.10
2022-08-05T02:58:09.709Z,25.10
2022-08-05T03:00:01.499Z,25.10
2022-08-05T03:02:35.627Z,25.10
2022-08-05T03:05:06.004Z,25.10
2022-08-05T03:08:00.647Z,25.10
2022-08-05T03:10:25.639Z,25.10
2022-08-05T03:12:55.098Z,25.10
2022-08-05T03:15:24.287Z,25.10
2022-08-05T03:17:55.547Z,25.10
2022-08-05T03:20:24.822Z,25.00
2022-08-05T03:22:57.298Z,25.00
2022-08-05T03:25:33.618Z,25.00
2022-08-05T03:28:18.794Z,24.90
2022-08-05T03:30:49.361Z,24.80
2022-08-05T03:33:19.393Z,24.80
2022-08-05T03:35:48.064Z,24.70
2022-08-05T03:38:32.958Z,24.60
2022-08-05T03:41:10.691Z,24.60
2022-08-05T03:44:08.462Z,24.50
2022-08-05T03:46:29.955Z,24.50
2022-08-05T03:49:02.229Z,24.40
2022-08-05T03:52:38.507Z,24.40
2022-08-05T03:55:51.937Z,24.30
2022-08-05T03:57:29.253Z,24.30
2022-08-05T04:00:15.534Z,24.20
2022-08-05T04:02:57.872Z,24.20
2022-08-05T04:05:33.801Z,24.10
2022-08-05T04:08:05.691Z,24.10
2022-08-05T04:10:45.237Z,24.00
2022-08-05T04:13:13.654Z,24.00
2022-08-05T04:15:52.607Z,24.00
2022-08-05T04:18:30.162Z,24.00
2022-08-05T04:20:59.703Z,23.90
2022-08-05T04:24:05.222Z,23.90
2022-08-05T04:26:17.795Z,23.90
2022-08-05T04:28:51.291Z,23.90
2022-08-05T04:31:20.395Z,23.80
2022-08-05T04:34:17.538Z,23.90
2022-08-05T04:36:46.163Z,23.90
2022-08-05T04:39:18.577Z,24.00
2022-08-05T04:41:48.071Z,24.10
2022-08-05T04:44:21.480Z,24.10
2022-08-05T04:46:58.484Z,24.20
2022-08-05T04:49:38.925Z,24.30
2022-08-05T04:52:17.668Z,24.40
2022-08-05T04:54:47.289Z,24.50
2022-08-05T04:57:17.522Z,24.70
2022-08-05T04:59:47.931Z,25.10
2022-08-05T05:02:36.710Z,25.60
2022-08-05T05:05:16.652Z,26.10
2022-08-05T05:07:56.666Z,26.70
2022-08-05T05:10:30.505Z,27.00
2022-08-05T05:13:00.468Z,27.20
2022-08-05T05:15:57.030Z,27.40
2022-08-05T05:18:31.043Z,27.70
2022-08-05T05:21:03.049Z,28.00
2022-08-05T05:23:39.445Z,27.90
2022-08-05T05:26:28.610Z,27.90
2022-08-05T05:29:02.313Z,28.00
2022-08-05T05:34:02.008Z,28.10
2022-08-05T05:36:31.306Z,28.00
2022-08-05T05:39:03.616Z,27.80
2022-08-05T05:41:40.363Z,27.80
2022-08-05T05:44:35.485Z,27.90
2022-08-05T05:46:57.871Z,28.00
2022-08-05T05:49:26.343Z,28.00
2022-08-05T05:51:54.462Z,27.80
2022-08-05T05:54:50.574Z,27.80
2022-08-05T05:57:13.708Z,27.70
2022-08-05T05:59:41.976Z,27.70
2022-08-05T06:02:11.366Z,27.40
2022-08-05T06:04:39.467Z,27.10
2022-08-05T06:07:07.563Z,26.80
2022-08-05T06:09:59.935Z,26.50
2022-08-05T06:12:28.031Z,26.30
2022-08-05T06:14:56.634Z,26.20
2022-08-05T06:17:31.116Z,26.10
2022-08-05T06:19:59.933Z,26.10
2022-08-05T06:22:29.462Z,26.00
2022-08-05T06:24:59.552Z,26.00
2022-08-05T06:28:10.411Z,26.10
2022-08-05T06:30:19.856Z,26.10
2022-08-05T06:32:56.314Z,26.10
2022-08-05T06:36:03.658Z,26.30
2022-08-05T06:38:12.559Z,26.40
2022-08-05T06:40:44.523Z,26.50
2022-08-05T06:43:59.013Z,26.80
2022-08-05T06:46:06.445Z,27.00
2022-08-05T06:48:52.898Z,27.30
2022-08-05T06:51:29.772Z,27.50
2022-08-05T06:53:58.988Z,27.60
2022-08-05T06:56:28.607Z,27.70
2022-08-05T06:58:57.188Z,27.80
2022-08-05T07:01:27.735Z,27.90
2022-08-05T07:04:01.350Z,27.90
2022-08-05T07:06:30.500Z,27.90
2022-08-05T07:09:04.011Z,27.80
2022-08-05T07:11:37.017Z,27.60
2022-08-05T07:14:28.831Z,27.50
2022-08-05T07:17:58.836Z,27.40
2022-08-05T07:20:32.032Z,27.20
2022-08-05T07:22:38.562Z,27.00
2022-08-05T07:25:22.806Z,26.90
2022-08-05T07:28:05.379Z,26.70
2022-08-05T07:30:39.218Z,26.60
2022-08-05T07:33:10.653Z,26.50
2022-08-05T07:36:05.386Z,26.50
2022-08-05T07:38:35.021Z,26.50
2022-08-05T07:42:08.921Z,26.50
2022-08-05T07:44:03.858Z,26.40
2022-08-05T07:46:33.873Z,26.30
2022-08-05T07:49:06.158Z,26.20
2022-08-05T07:51:41.143Z,26.10
2022-08-05T07:54:30.806Z,25.80
2022-08-05T07:57:17.695Z,25.50
2022-08-05T07:59:49.468Z,25.20
2022-08-05T08:02:18.368Z,25.10
2022-08-05T08:04:48.745Z,25.30
2022-08-05T08:07:22.501Z,25.60
2022-08-05T08:09:55.056Z,26.00
2022-08-05T08:12:37.082Z,26.50
2022-08-05T08:15:15.680Z,26.90
2022-08-05T08:17:50.660Z,27.40
2022-08-05T08:20:59.934Z,27.70
2022-08-05T08:23:59.903Z,28.10
2022-08-05T08:26:00.611Z,28.30
2022-08-05T08:28:36.654Z,28.40
2022-08-05T08:31:16.405Z,28.50
2022-08-05T08:33:45.931Z,28.50
2022-08-05T08:36:49.075Z,28.50
2022-08-05T08:39:03.030Z,28.60
2022-08-05T08:41:52.184Z,28.70
2022-08-05T08:45:22.307Z,28.80
2022-08-05T08:47:47.060Z,28.90
2022-08-05T08:50:22.495Z,28.90
2022-08-05T08:52:57.701Z,28.80
2022-08-05T08:56:02.150Z,28.90
2022-08-05T08:58:17.114Z,29.00
2022-08-05T09:00:46.770Z,28.90
2022-08-05T09:03:19.189Z,28.80
2022-08-05T09:06:09.170Z,28.70
2022-08-05T09:08:40.184Z,28.70
2022-08-05T09:11:12.137Z,28.90
2022-08-05T09:14:09.997Z,28.90
2022-08-05T09:16:32.255Z,29.00
2022-08-05T09:19:01.658Z,29.00
2022-08-05T09:22:24.960Z,29.20
2022-08-05T09:24:24.319Z,29.50
2022-08-05T09:26:56.152Z,29.70
2022-08-05T09:29:44.739Z,29.90
2022-08-05T09:32:46.012Z,30.00
2022-08-05T09:35:26.347Z,29.90
2022-08-05T09:38:17.977Z,30.00
2022-08-05T09:40:51.978Z,30.10
2022-08-05T09:43:40.560Z,30.20
2022-08-05T09:46:27.873Z,30.40
2022-08-05T09:49:07.773Z,30.70
2022-08-05T09:51:48.791Z,30.80
2022-08-05T09:54:28.886Z,31.00
2022-08-05T09:57:01.188Z,31.20
2022-08-05T09:59:36.937Z,31.40
2022-08-05T10:02:06.466Z,31.30
2022-08-05T10:04:40.951Z,31.30
2022-08-05T10:07:19.722Z,31.40
2022-08-05T10:10:04.308Z,31.40
2022-08-05T10:12:49.595Z,31.50
2022-08-05T10:15:26.702Z,31.50
2022-08-05T10:18:11.361Z,31.40
2022-08-05T10:20:42.851Z,31.40
2022-08-05T10:23:34.617Z,31.50
2022-08-05T10:26:07.025Z,31.70
2022-08-05T10:28:36.619Z,31.80
2022-08-05T10:32:48.605Z,31.90
2022-08-05T10:33:54.408Z,31.80
2022-08-05T10:36:26.070Z,31.80
2022-08-05T10:39:10.141Z,32.00
2022-08-05T10:41:48.114Z,32.10
2022-08-05T10:44:19.888Z,32.30
2022-08-05T10:46:50.882Z,32.50
2022-08-05T10:49:26.795Z,32.60
2022-08-05T10:52:00.788Z,32.80
2022-08-05T10:55:04.335Z,33.10
2022-08-05T10:57:34.028Z,33.20
2022-08-05T11:00:19.190Z,33.10
2022-08-05T11:03:24.397Z,33.00
2022-08-05T11:06:15.579Z,32.60
2022-08-05T11:09:32.395Z,32.40
2022-08-05T11:12:45.440Z,32.30
2022-08-05T11:15:22.280Z,32.20
2022-08-05T11:17:57.232Z,32.40
2022-08-05T11:20:43.910Z,32.60
2022-08-05T11:24:03.050Z,33.00
2022-08-05T11:26:29.133Z,33.30
2022-08-05T11:29:11.841Z,33.60
2022-08-05T11:31:58.204Z,33.60
2022-08-05T11:34:51.547Z,33.80
2022-08-05T11:38:30.468Z,33.80
2022-08-05T11:41:03.534Z,33.90
2022-08-05T11:44:07.109Z,33.90
2022-08-05T11:47:09.509Z,33.80
2022-08-05T11:49:27.656Z,33.60
2022-08-05T11:51:57.711Z,33.60
2022-08-05T11:54:33.341Z,33.50
2022-08-05T11:57:07.926Z,33.50
2022-08-05T11:59:49.499Z,33.50
2022-08-05T12:02:30.319Z,33.60
2022-08-05T12:05:07.117Z,33.70
2022-08-05T12:08:07.348Z,33.60
2022-08-05T12:10:38.445Z,33.40
2022-08-05T12:13:17.454Z,33.20
2022-08-05T12:15:56.452Z,33.20
2022-08-05T12:18:34.239Z,33.40
2022-08-05T12:21:13.524Z,33.40
2022-08-05T12:23:53.830Z,33.60
2022-08-05T12:26:23.944Z,33.60
2022-08-05T12:28:52.446Z,33.60
2022-08-05T12:31:32.607Z,33.50
2022-08-05T12:34:20.539Z,33.40
2022-08-05T12:36:54.271Z,33.20
2022-08-05T12:39:28.177Z,33.00
2022-08-05T12:42:14.779Z,33.00
2022-08-05T12:44:44.515Z,33.10
2022-08-05T12:47:17.108Z,33.30
2022-08-05T12:50:04.782Z,33.20
2022-08-05T12:52:38.129Z,33.00
2022-08-05T12:55:22.276Z,32.90
2022-08-05T12:58:50.395Z,32.60
2022-08-05T13:02:03.683Z,32.50
2022-08-05T13:03:33.118Z,32.40
2022-08-05T13:06:01.494Z,32.50
2022-08-05T13:08:32.934Z,32.70
2022-08-05T13:11:02.162Z,32.70
2022-08-05T13:14:06.300Z,32.60
2022-08-05T13:16:24.985Z,32.50
2022-08-05T13:18:57.587Z,32.50
2022-08-05T13:21:28.537Z,32.40
2022-08-05T13:24:08.553Z,32.40
2022-08-05T13:26:37.240Z,32.60
2022-08-05T13:29:05.912Z,33.00
2022-08-05T13:32:05.048Z,33.30
2022-08-05T13:34:25.932Z,33.50
2022-08-05T13:36:54.663Z,33.70
2022-08-05T13:40:15.840Z,33.80
2022-08-05T13:42:14.619Z,33.90
2022-08-05T13:44:45.846Z,33.90
2022-08-05T13:47:34.818Z,33.90
2022-08-05T13:50:04.497Z,34.00
2022-08-05T13:52:37.879Z,34.00
2022-08-05T13:55:09.658Z,34.10
2022-08-05T13:57:51.622Z,34.20
2022-08-05T14:00:26.634Z,34.10
2022-08-05T14:02:56.822Z,34.10
2022-08-05T14:05:29.318Z,34.20
2022-08-05T14:08:21.396Z,34.20
2022-08-05T14:11:03.190Z,34.30
2022-08-05T14:13:48.298Z,34.50
2022-08-05T14:16:20.528Z,34.50
2022-08-05T14:18:48.591Z,34.50
2022-08-05T14:22:07.310Z,34.40
2022-08-05T14:24:08.941Z,34.40
2022-08-05T14:26:51.425Z,34.40
2022-08-05T14:29:27.452Z,34.20
2022-08-05T14:32:15.968Z,34.20
2022-08-05T14:34:50.429Z,34.10
2022-08-05T14:37:19.648Z,34.10
2022-08-05T14:39:56.937Z,34.00
2022-08-05T14:42:28.370Z,34.10
2022-08-05T14:44:57.017Z,34.10
2022-08-05T14:48:03.237Z,34.20
2022-08-05T14:50:17.783Z,34.10
2022-08-05T14:52:53.401Z,33.90
2022-08-05T14:55:25.724Z,33.50
2022-08-05T14:57:58.096Z,33.30
2022-08-05T15:00:27.996Z,33.20
2022-08-05T15:02:58.220Z,33.20
2022-08-05T15:05:29.884Z,33.20
2022-08-05T15:08:17.977Z,33.30
2022-08-05T15:11:03.565Z,33.30
2022-08-05T15:13:46.258Z,33.10
2022-08-05T15:16:18.303Z,32.90
2022-08-05T15:18:47.202Z,32.70
2022-08-05T15:21:15.466Z,32.70
2022-08-05T15:23:49.047Z,32.70
2022-08-05T15:26:31.735Z,32.60
2022-08-05T15:29:02.615Z,32.70
2022-08-05T15:31:34.903Z,32.80
2022-08-05T15:34:18.305Z,32.80
2022-08-05T15:36:51.208Z,32.80
2022-08-05T15:40:59.733Z,32.80
2022-08-05T15:42:54.482Z,32.80
2022-08-05T15:44:58.129Z,32.60
2022-08-05T15:47:26.725Z,32.40
2022-08-05T15:49:58.688Z,32.30
2022-08-05T15:52:51.867Z,32.10
2022-08-05T15:55:17.644Z,31.90
2022-08-05T15:57:48.852Z,31.80
2022-08-05T16:00:32.750Z,31.60
2022-08-05T16:03:07.026Z,31.40
2022-08-05T16:05:35.299Z,31.30
2022-08-05T16:08:07.180Z,31.20
2022-08-05T16:10:36.170Z,31.10
2022-08-05T16:13:04.253Z,31.00
2022-08-05T16:15:34.521Z,30.90
2022-08-05T16:18:04.264Z,30.80
2022-08-05T16:20:37.333Z,30.80
2022-08-05T16:23:05.520Z,30.70
2022-08-05T16:25:36.762Z,30.70
2022-08-05T16:28:06.407Z,30.60
2022-08-05T16:30:39.205Z,30.50
2022-08-05T16:33:09.647Z,30.40
2022-08-05T16:35:42.970Z,30.40
2022-08-05T16:38:18.420Z,30.30
2022-08-05T16:40:59.818Z,30.30
2022-08-05T16:43:31.225Z,30.10
2022-08-05T16:46:04.819Z,30.10
2022-08-05T16:48:37.721Z,30.00
2022-08-05T16:51:10.015Z,29.90
2022-08-05T16:54:04.273Z,29.70
2022-08-05T16:56:30.338Z,29.60
2022-08-05T16:58:58.504Z,29.40
2022-08-05T17:01:53.283Z,29.30
2022-08-05T17:04:18.806Z,29.20
2022-08-05T17:06:53.292Z,29.10
2022-08-05T17:09:23.204Z,29.00
2022-08-05T17:11:55.924Z,28.80
2022-08-05T17:14:37.442Z,28.70
2022-08-05T17:17:14.213Z,28.60
2022-08-05T17:19:45.696Z,28.40
2022-08-05T17:22:24.819Z,28.30
2022-08-05T17:24:57.587Z,28.20
2022-08-05T17:27:33.855Z,28.00
2022-08-05T17:30:03.934Z,27.80
2022-08-05T17:32:34.617Z,27.50
2022-08-05T17:35:04.021Z,27.20
2022-08-05T17:37:41.513Z,27.00
2022-08-05T17:40:15.353Z,26.80
2022-08-05T17:42:50.526Z,26.60
2022-08-05T17:45:21.804Z,26.40
2022-08-05T17:47:55.346Z,26.10
2022-08-05T17:50:28.558Z,25.90
2022-08-05T17:52:59.374Z,25.50
2022-08-05T17:55:37.353Z,25.30
2022-08-05T17:58:12.922Z,25.00
2022-08-05T18:00:45.107Z,24.70
2022-08-05T18:03:48.481Z,24.40
2022-08-05T18:06:12.332Z,24.00
2022-08-05T18:08:45.841Z,23.80
2022-08-05T18:11:23.913Z,23.50
2022-08-05T18:13:57.716Z,23.30
2022-08-05T18:16:27.861Z,23.10
2022-08-05T18:18:57.546Z,22.90
2022-08-05T18:21:26.460Z,22.80
2022-08-05T18:23:56.443Z,22.60
2022-08-05T18:26:27.521Z,22.50
2022-08-05T18:28:59.106Z,22.40
2022-08-05T18:31:33.968Z,22.30
2022-08-05T18:34:06.027Z,22.10
2022-08-05T18:36:36.143Z,22.10
2022-08-05T18:39:06.494Z,22.10
2022-08-05T18:41:57.703Z,21.90
2022-08-05T18:44:34.750Z,21.90
2022-08-05T18:47:04.697Z,21.80
2022-08-05T18:49:57.974Z,21.70
2022-08-05T18:52:37.915Z,21.60
2022-08-05T18:55:10.969Z,21.50
2022-08-05T18:57:50.178Z,21.40
2022-08-05T19:00:24.997Z,21.30
2022-08-05T19:02:57.664Z,21.30
2022-08-05T19:06:12.348Z,21.30
2022-08-05T19:08:30.555Z,21.20
2022-08-05T19:11:04.761Z,21.10
2022-08-05T19:13:36.132Z,21.10
2022-08-05T19:16:24.389Z,21.10
2022-08-05T19:18:56.597Z,21.10
2022-08-05T19:21:34.258Z,21.10
2022-08-05T19:24:06.640Z,21.20
2022-08-05T19:26:54.917Z,21.20
2022-08-05T19:29:26.814Z,21.30
2022-08-05T19:32:05.441Z,21.30
2022-08-05T19:34:37.019Z,21.40
2022-08-05T19:37:10.067Z,21.40
2022-08-05T19:39:45.820Z,21.40
2022-08-05T19:42:35.736Z,21.40
2022-08-05T19:45:06.513Z,21.30
2022-08-05T19:47:37.605Z,21.30
2022-08-05T19:50:07.807Z,21.20
2022-08-05T19:52:40.656Z,21.20
2022-08-05T19:56:14.733Z,21.10
2022-08-05T19:58:14.207Z,21.10
2022-08-05T20:00:47.061Z,21.00
2022-08-05T20:03:15.780Z,21.00
2022-08-05T20:05:50.624Z,21.00
2022-08-05T20:08:24.541Z,21.00
2022-08-05T20:10:52.962Z,21.00
2022-08-05T20:13:54.474Z,21.00
2022-08-05T20:16:10.229Z,21.00
2022-08-05T20:18:38.571Z,21.00
2022-08-05T20:21:08.658Z,20.90
2022-08-05T20:23:50.918Z,20.80
2022-08-05T20:26:25.740Z,20.70
2022-08-05T20:28:56.126Z,20.70
2022-08-05T20:31:37.083Z,20.70
2022-08-05T20:34:11.604Z,20.60
2022-08-05T20:36:43.407Z,20.60
2022-08-05T20:39:16.150Z,20.60
2022-08-05T20:41:46.666Z,20.60
2022-08-05T20:44:30.316Z,20.60
2022-08-05T20:46:59.745Z,20.50
2022-08-05T20:49:28.189Z,20.40
2022-08-05T20:51:57.840Z,20.30
2022-08-05T20:54:43.260Z,20.20
2022-08-05T20:57:41.884Z,20.10
2022-08-05T21:00:20.285Z,20.00
2022-08-05T21:02:57.802Z,19.90
2022-08-05T21:05:25.997Z,19.80
2022-08-05T21:08:06.897Z,19.70
2022-08-05T21:10:36.506Z,19.60
2022-08-05T21:13:11.274Z,19.50
2022-08-05T21:15:50.931Z,19.50
2022-08-05T21:18:19.432Z,19.40
2022-08-05T21:20:51.398Z,19.30
2022-08-05T21:23:19.450Z,19.20
2022-08-05T21:25:51.894Z,19.10
2022-08-05T21:28:30.654Z,19.10
2022-08-05T21:30:59.080Z,19.10
2022-08-05T21:33:37.033Z,19.20
2022-08-05T21:36:08.372Z,19.20
2022-08-05T21:38:40.417Z,19.20
2022-08-05T21:41:10.115Z,19.10
2022-08-05T21:43:41.664Z,19.00
2022-08-05T21:46:10.130Z,18.90
2022-08-05T21:48:40.051Z,18.80
2022-08-05T21:52:15.715Z,18.70
2022-08-05T21:53:59.698Z,18.60
2022-08-05T21:56:33.399Z,18.50
2022-08-05T21:59:01.421Z,18.40
2022-08-05T22:01:36.281Z,18.30
2022-08-05T22:04:04.529Z,18.30
2022-08-05T22:06:34.811Z,18.20
2022-08-05T22:09:15.086Z,18.10
2022-08-05T22:11:50.232Z,18.20
2022-08-05T22:14:33.547Z,18.20
2022-08-05T22:17:07.528Z,18.20
2022-08-05T22:20:02.015Z,18.20
2022-08-05T22:22:27.977Z,18.20
2022-08-05T22:25:21.247Z,18.10
2022-08-05T22:28:08.538Z,18.10
2022-08-05T22:30:43.955Z,18.10
2022-08-05T22:33:57.881Z,18.10
2022-08-05T22:36:09.966Z,18.00
2022-08-05T22:38:38.348Z,18.00
2022-08-05T22:41:10.828Z,17.90
2022-08-05T22:43:41.230Z,17.80
2022-08-05T22:46:13.214Z,17.80
2022-08-05T22:48:51.718Z,17.80
2022-08-05T22:51:22.815Z,17.70
2022-08-05T22:53:58.077Z,17.70
2022-08-05T22:56:29.768Z,17.50
2022-08-05T22:59:04.062Z,17.30
2022-08-05T23:02:05.190Z,17.30
2022-08-05T23:04:35.394Z,17.30
2022-08-05T23:07:04.155Z,17.20
2022-08-05T23:09:58.376Z,17.20
2022-08-05T23:12:24.506Z,17.20
2022-08-05T23:14:53.975Z,17.20
2022-08-05T23:17:34.178Z,17.10
2022-08-05T23:20:17.398Z,17.10
2022-08-05T23:22:47.332Z,17.10
2022-08-05T23:25:50.211Z,17.10
2022-08-05T23:28:07.110Z,17.10
2022-08-05T23:30:40.174Z,17.10
2022-08-05T23:33:16.347Z,16.90
2022-08-05T23:35:56.150Z,16.90
2022-08-05T23:38:26.073Z,16.60
2022-08-05T23:40:54.977Z,16.40
2022-08-05T23:43:49.651Z,16.20
2022-08-05T23:46:20.957Z,16.20
2022-08-05T23:49:00.371Z,16.20
2022-08-05T23:51:54.879Z,16.30
2022-08-05T23:54:25.695Z,16.30
2022-08-05T23:57:03.167Z,16.40
